Terminal Aerodrome Forecast
Issued by NWS

Home | Current Version | Previous Version | Text Only | Print | Product List | Glossary On
Versions: 1 2 3 4 5 6 7 8 9 10 11 12 13
080
FTUS45 KRIW 272330
TAFCPR
TAF
KCPR 272330Z 2800/2824 29007KT P6SM SCT050 BKN080
     FM280200 03010KT P6SM VCSH SCT020 BKN035
     FM280400 04008KT 6SM -RA SCT013 BKN019
     FM281200 02012G20KT 6SM -RA OVC013=

USA.gov is the U.S. government's official web portal to all federal, state and local government web resources and services.